• Join FlightAware (Why Join?)
  • Login
  • US Flag 
07:34AM EDT


 

Airport Tracker/Info


-or-


 

Live Flight TrackerFlight Track Log ✈ WAV760 ✈ 05-Feb-2014 ✈ PAFA / FAI - PATA / TAL

Flight Track Log - Related Links

Times and Time Zones

All times are in EST time to prevent confusion due to time zone crossing. See the WAV760 flight status page for this flight to view local times or setup timezone preferences in your user account.

Time Position Orientation Groundspeed Altitude Reporting Facility
EST Latitude Longitude Course Direction KTS MPH feet Rate Location/Type
09:08PM 64.7000 -148.1167 281° West 110 127 3,700  Level Anchorage Center
09:09PM 64.7167 -148.1667 308° West 100 115 4,400 600 Climbing Anchorage Center
09:10PM 64.8629 -148.4314 278° West  Level FlightAware Approximate
09:10PM 64.7167 -148.2333 270° West 100 115 5,000  Level Anchorage Center
09:11PM 64.8734 -148.5270 301° West  Level FlightAware Approximate
09:11PM 64.7333 -148.3000 300° West 90 104 5,700  Level Anchorage Center
09:12PM 64.8878 -148.6202 281° West  Level FlightAware Approximate
09:12PM 64.7333 -148.3667 270° West 100 115 6,200  Level Anchorage Center
09:13PM 64.8960 -148.7189 281° West  Level FlightAware Approximate
09:13PM 64.7500 -148.4333 300° West 110 127 6,800  Level Anchorage Center
09:14PM 64.7500 -148.5000 270° West 110 127 7,400 600 Climbing Anchorage Center
09:15PM 64.7667 -148.5667 300° West 110 127 8,000 240 Climbing Anchorage Center
09:16PM 64.7667 -148.6500 270° West 120 138 8,000  Level Anchorage Center
09:17PM 64.7667 -148.7167 270° West 130 150 8,000  Level Anchorage Center
09:18PM 64.7833 -148.8000 295° West 130 150 8,000  Level Anchorage Center
09:19PM 64.8000 -148.8833 295° West 140 161 8,000  Level Anchorage Center
09:20PM 64.8000 -148.9667 270° West 130 150 8,000  Level Anchorage Center
09:21PM 64.8167 -149.0500 295° West 130 150 8,000  Level Anchorage Center
09:22PM 64.8167 -149.1500 270° West 130 150 8,000  Level Anchorage Center
09:23PM 64.8333 -149.2333 295° West 130 150 8,000  Level Anchorage Center
09:24PM 64.8500 -149.3167 295° West 140 161 8,000  Level Anchorage Center
09:25PM 64.8500 -149.3833 270° West 120 138 8,000  Level Anchorage Center
09:26PM 64.8667 -149.4833 291° West 140 161 8,000  Level Anchorage Center
09:27PM 64.8833 -149.5667 295° West 140 161 8,000  Level Anchorage Center
09:28PM 64.8833 -149.6500 270° West 150 173 8,000  Level Anchorage Center
09:29PM 64.9000 -149.7667 289° West 160 184 8,000  Level Anchorage Center
09:30PM 64.9167 -149.8500 295° West 140 161 8,000  Level Anchorage Center
09:31PM 64.9333 -149.9500 292° West 160 184 8,000  Level Anchorage Center
09:32PM 64.9333 -150.0333 270° West 150 173 8,000  Level Anchorage Center
09:33PM 64.9500 -150.1333 292° West 160 184 8,000  Level Anchorage Center
09:34PM 64.9667 -150.2167 295° West 160 184 8,000  Level Anchorage Center
09:35PM 64.9667 -150.3000 270° West 120 138 8,000  Level Anchorage Center
09:36PM 64.9833 -150.4167 289° West 150 173 8,000  Level Anchorage Center
09:37PM 64.9833 -150.5000 270° West 140 161 8,000  Level Anchorage Center
09:38PM 65.0000 -150.6000 292° West 180 207 8,000  Level Anchorage Center
09:39PM 65.0000 -150.7000 270° West 140 161 8,000  Level Anchorage Center
09:41PM 65.0167 -150.8833 282° West 160 184 8,000  Level Anchorage Center
09:42PM 65.0167 -151.0000 270° West 160 184 8,000  Level Anchorage Center
09:43PM 65.0167 -151.1000 270° West 150 173 8,000  Level Anchorage Center
09:44PM 65.0167 -151.2000 270° West 150 173 8,000  Level Anchorage Center
09:45PM 65.0333 -151.3000 292° West 160 184 8,000  Level Anchorage Center
09:46PM 65.0333 -151.4000 270° West 140 161 8,000  Level Anchorage Center
09:47PM 65.0333 -151.5000 270° West 140 161 8,000 -240 Level Anchorage Center
09:48PM 65.0333 -151.6167 270° West 170 196 7,600 -480 Descending Anchorage Center
09:49PM 65.0500 -151.6833 301° West 150 173 7,100 -540 Descending Anchorage Center
09:50PM 65.0500 -151.8167 270° West 160 184 6,600 -420 Descending Anchorage Center
09:51PM 65.0500 -151.9333 270° West 160 184 6,300 -420 Descending Anchorage Center
09:52PM 65.0500 -152.0333 270° West 160 184 5,800 -480 Descending Anchorage Center
09:53PM 65.0667 -152.1333 292° West 160 184 5,400 -420 Descending Anchorage Center
09:54PM 65.0667 -152.2333 270° West 150 173 5,000 -600 Descending Anchorage Center
09:55PM 65.0667 -152.3500 270° West 160 184 4,300 -600 Descending Anchorage Center
09:56PM 65.0667 -152.4667 270° West 170 196 3,800 -420 Descending Anchorage Center
09:57PM 65.0833 -152.5500 295° West 150 173 3,500 -240 Descending Anchorage Center
09:58PM 65.1333 -152.5667 352° North 150 173 3,400 -60 Descending Anchorage Center
09:59PM 65.1667 -152.5000 40° Northeast 160 184 3,400 -120 Level Anchorage Center
10:00PM 65.1667 -152.4167 90° East 160 184 3,200 -240 Descending Anchorage Center